Aeroporto :
LOGIN :

Iscrizione | Disclaimer

   EN    FR    IT 

 










Sommario :    VFR   VFR Marginale   IFR   IFR Intensivo   IFR Molto Intensivo
Visibilità : 
Base nubi : 
>= 8 km
>= 3000ft
5 / 8 km
1000 / 3000 ft
1500m / 5 km
500 / 1000 ft
800 / 1500m
200 / 500 ft
< 800m
< 200 ft
Simboli :   Temporali  Nebbia  Neve Forte  Precipitazioni Forti  Vento > 20 kt
SIGMETs :   Varie  Temporali  Ghiacco  Turbolenza  Onda orograficha  Ceneri Vulcaniche






- Altitudine del aeroporto : 121 ft
- Codice IATA : HUY


EGNJ - Humberside

ULTIMO METAR :
  • 020720Z AUTO 12006KT 9999 -RA SCT020/// BKN030/// BKN045/// 04/03 Q0992

METARs OBSOLETI :
  • 020650Z AUTO 11007KT 9999 -RA SCT017/// BKN036/// 03/03 Q0992
  • 020620Z 11008KT 9999 SCT017 SCT032 03/02 Q0991
  • 020550Z 11007KT 9999 FEW018 SCT032 03/02 Q0991
  • 020520Z AUTO 10006KT 9999 NCD 02/02 Q0991
  • 020450Z AUTO 12006KT 9999 FEW045/// 02/01 Q0991
  • 020420Z AUTO 11006KT 9999 SCT025/// SCT034/// 03/02 Q0991
  • 012050Z AUTO 13009KT 9999 SCT040/// 03/01 Q0992
  • 020350Z AUTO 12005KT 9999 BKN026/// 02/02 Q0991
  • 020320Z AUTO 12005KT 9999 BKN023/// OVC042/// 02/01 Q0991
  • 020250Z AUTO VRB02KT 9999 BKN040/// 03/02 Q0991
  • 020220Z AUTO 08002KT 9999 BKN037/// 03/02 Q0991

TAF TAF EGNJ
Valido dal 02 a 06 ore il 02 a 15 ore UTC


020457Z 0206/0215 13004KT 9999 SCT020
PROB30
TEMPO 0206/0210 7000 SHRA BKN014
TEMPO 0210/0215 7000 SHRA BKN014
PROB30
TEMPO 0210/0215 4000 +SHRA BKN009
ATIS : +44 1652 682 020



MetMap, La meteo Aeronautica in un colpo d'occhio ! - Copyright ORBIFLY Dicembre 2007 - Disclaimer

ORBIFLY MET'MAP TEAM :

Programmazione e sviluppo : Alexandra Zaïnal
Concezione : Baudouin d'Aumeries
Supporto tecnico e logistico : Manuel Goepfert
Aiuto : Marc-Olivier Méhu
Aiuto per la traduzione : Arnaldo La Scala




FONTI E CREDITI :

   NOAA